地図

経路データ

SID SEASON NUMBER BASIN SUBBASIN NAME ISO_TIME NATURE LAT LON WMO_WIND WMO_PRES WMO_AGENCY TRACK_TYPE DIST2LAND LANDFALL IFLAG USA_AGENCY USA_ATCF_ID USA_LAT USA_LON USA_RECORD USA_STATUS USA_WIND USA_PRES USA_SSHS USA_R34_NE USA_R34_SE USA_R34_SW USA_R34_NW USA_R50_NE USA_R50_SE USA_R50_SW USA_R50_NW USA_R64_NE USA_R64_SE USA_R64_SW USA_R64_NW USA_POCI USA_ROCI USA_RMW USA_EYE TOKYO_LAT TOKYO_LON TOKYO_GRADE TOKYO_WIND TOKYO_PRES TOKYO_R50_DIR TOKYO_R50_LONG TOKYO_R50_SHORT TOKYO_R30_DIR TOKYO_R30_LONG TOKYO_R30_SHORT TOKYO_LAND CMA_LAT CMA_LON CMA_CAT CMA_WIND CMA_PRES HKO_LAT HKO_LON HKO_CAT HKO_WIND HKO_PRES NEWDELHI_LAT NEWDELHI_LON NEWDELHI_GRADE NEWDELHI_WIND NEWDELHI_PRES NEWDELHI_CI NEWDELHI_DP NEWDELHI_POCI REUNION_LAT REUNION_LON REUNION_TYPE REUNION_WIND REUNION_PRES REUNION_TNUM REUNION_CI REUNION_RMW REUNION_R34_NE REUNION_R34_SE REUNION_R34_SW REUNION_R34_NW REUNION_R50_NE REUNION_R50_SE REUNION_R50_SW REUNION_R50_NW REUNION_R64_NE REUNION_R64_SE REUNION_R64_SW REUNION_R64_NW BOM_LAT BOM_LON BOM_TYPE BOM_WIND BOM_PRES BOM_TNUM BOM_CI BOM_RMW BOM_R34_NE BOM_R34_SE BOM_R34_SW BOM_R34_NW BOM_R50_NE BOM_R50_SE BOM_R50_SW BOM_R50_NW BOM_R64_NE BOM_R64_SE BOM_R64_SW BOM_R64_NW BOM_ROCI BOM_POCI BOM_EYE BOM_POS_METHOD BOM_PRES_METHOD NADI_LAT NADI_LON NADI_CAT NADI_WIND NADI_PRES WELLINGTON_LAT WELLINGTON_LON WELLINGTON_WIND WELLINGTON_PRES DS824_LAT DS824_LON DS824_STAGE DS824_WIND DS824_PRES TD9636_LAT TD9636_LON TD9636_STAGE TD9636_WIND TD9636_PRES TD9635_LAT TD9635_LON TD9635_WIND TD9635_PRES TD9635_ROCI NEUMANN_LAT NEUMANN_LON NEUMANN_CLASS NEUMANN_WIND NEUMANN_PRES MLC_LAT MLC_LON MLC_CLASS MLC_WIND MLC_PRES USA_GUST BOM_GUST BOM_GUST_PER REUNION_GUST REUNION_GUST_PER USA_SEAHGT USA_SEARAD_NE USA_SEARAD_SE USA_SEARAD_SW USA_SEARAD_NW STORM_SPEED STORM_DIR
1905070S15417 1905 14 SI MM NOT_NAMED 1905-03-10 18:00:00 NR -14.6000 56.7000 main 621 610 __________O___ -1 -14.6000 56.7000 7 3 209
1905070S15417 1905 14 SI MM NOT_NAMED 1905-03-10 21:00:00 NR -14.7516 56.6156 main 600 589 __________P___ -1 -14.7516 56.6156 7 4 208
1905070S15417 1905 14 SI MM NOT_NAMED 1905-03-11 00:00:00 NR -14.9125 56.5249 main 591 571 __________P___ -1 -14.9125 56.5249 7 4 209
1905070S15417 1905 14 SI MM NOT_NAMED 1905-03-11 03:00:00 NR -15.0922 56.4218 main 571 551 __________P___ -1 -15.0922 56.4218 7 4 209
1905070S15417 1905 14 SI MM NOT_NAMED 1905-03-11 06:00:00 NR -15.3000 56.3000 main 551 532 __________O___ -1 -15.3000 56.3000 7 5 210
1905070S15417 1905 14 SI MM NOT_NAMED 1905-03-11 09:00:00 NR -15.5407 56.1564 main 532 506 __________P___ -1 -15.5407 56.1564 7 6 210
1905070S15417 1905 14 SI MM NOT_NAMED 1905-03-11 12:00:00 NR -15.8001 56.0002 main 506 488 __________P___ -1 -15.8001 56.0002 7 6 210
1905070S15417 1905 14 SI MM NOT_NAMED 1905-03-11 15:00:00 NR -16.0594 55.8439 main 482 465 __________P___ -1 -16.0594 55.8439 7 6 210
1905070S15417 1905 14 SI MM NOT_NAMED 1905-03-11 18:00:00 NR -16.3000 55.7000 main 465 449 __________O___ -1 -16.3000 55.7000 7 5 211
1905070S15417 1905 14 SI MM NOT_NAMED 1905-03-11 21:00:00 NR -16.4640 55.5933 main 449 444 __________P___ -1 -16.4640 55.5933 7 4 212
1905070S15417 1905 14 SI MM NOT_NAMED 1905-03-12 00:00:00 NR -16.6124 55.4994 main 444 430 __________P___ -1 -16.6124 55.4994 7 4 210
1905070S15417 1905 14 SI MM NOT_NAMED 1905-03-12 03:00:00 NR -16.7796 55.4058 main 430 417 __________P___ -1 -16.7796 55.4058 7 4 206
1905070S15417 1905 14 SI MM NOT_NAMED 1905-03-12 06:00:00 NR -17.0000 55.3000 main 417 395 __________O___ -1 -17.0000 55.3000 7 6 205
1905070S15417 1905 14 SI MM NOT_NAMED 1905-03-12 09:00:00 NR -17.3217 55.1405 main 402 370 __________P___ -1 -17.3217 55.1405 7 8 204
1905070S15417 1905 14 SI MM NOT_NAMED 1905-03-12 12:00:00 NR -17.6977 54.9708 main 370 328 __________P___ -1 -17.6977 54.9708 7 8 202
1905070S15417 1905 14 SI MM NOT_NAMED 1905-03-12 15:00:00 NR -18.0998 54.8155 main 328 286 __________P___ -1 -18.0998 54.8155 7 8 198
1905070S15417 1905 14 SI MM NOT_NAMED 1905-03-12 18:00:00 NR -18.5000 54.7000 main 286 253 __________O___ -1 -18.5000 54.7000 7 8 192
1905070S15417 1905 14 SI MM NOT_NAMED 1905-03-12 21:00:00 NR -18.8490 54.6444 main 256 214 __________P___ -1 -18.8490 54.6444 7 7 185
1905070S15417 1905 14 SI MM NOT_NAMED 1905-03-13 00:00:00 NR -19.1924 54.6323 main 214 179 __________P___ -1 -19.1924 54.6323 7 7 178
1905070S15417 1905 14 SI MM NOT_NAMED 1905-03-13 03:00:00 NR -19.5396 54.6540 main 179 137 __________P___ -1 -19.5396 54.6540 7 7 174
1905070S15417 1905 14 SI MM NOT_NAMED 1905-03-13 06:00:00 NR -19.9000 54.7000 main 137 100 __________O___ -1 -19.9000 54.7000 7 8 175
1905070S15417 1905 14 SI MM NOT_NAMED 1905-03-13 09:00:00 NR -20.2896 54.7254 main 100 61 __________P___ -1 -20.2896 54.7254 7 8 175
1905070S15417 1905 14 SI MM NOT_NAMED 1905-03-13 12:00:00 NR -20.6923 54.7756 main 61 31 __________P___ -1 -20.6923 54.7756 7 8 171
1905070S15417 1905 14 SI MM NOT_NAMED 1905-03-13 15:00:00 NR -21.0989 54.8631 main 31 31 __________P___ -1 -21.0989 54.8631 7 8 165
1905070S15417 1905 14 SI MM NOT_NAMED 1905-03-13 18:00:00 NR -21.5000 55.0000 main 38 38 __________O___ -1 -21.5000 55.0000 7 9 159
1905070S15417 1905 14 SI MM NOT_NAMED 1905-03-13 21:00:00 NR -21.8885 55.1944 main 67 67 __________P___ -1 -21.8885 55.1944 7 9 152
1905070S15417 1905 14 SI MM NOT_NAMED 1905-03-14 00:00:00 NR -22.2656 55.4359 main 102 101 __________P___ -1 -22.2656 55.4359 7 9 147
1905070S15417 1905 14 SI MM NOT_NAMED 1905-03-14 03:00:00 NR -22.6349 55.7095 main 134 134 __________P___ -1 -22.6349 55.7095 7 9 145
1905070S15417 1905 14 SI MM NOT_NAMED 1905-03-14 06:00:00 NR -23.0000 56.0000 main 183 __________O___ -1 -23.0000 56.0000 7 9 144

IBTrACS Databaseについて

本データベースは、米国NOAAが公開する1842年以降の世界の熱帯低気圧のベストトラックデータアーカイブInternational Best Track Archive for Climate Stewardship (IBTrACS)を、ウェブで閲覧しやすい形式に変換したものです。

最終更新日:2021-10-25